Terminal Aerodrome Forecast
Issued by NWS Wakefield, VA

Home | Current Version | Previous Version | Text Only | Print | Product List | Glossary On
Versions: 1 2 3 4 5 6 7 8 9 10 11 12 13 14 15
378
FTUS41 KAKQ 262327
TAFRIC
TAF
KRIC 262327Z 2700/2724 09011KT P6SM FEW035 SCT090
     FM270500 16004KT P6SM BKN050
     FM271000 19005KT P6SM BKN025
     FM271100 19005KT P6SM BKN015
     FM271500 20008KT P6SM BKN050=

USA.gov is the U.S. government's official web portal to all federal, state and local government web resources and services.